sensor_id;sensor_type;location;lat;lon;timestamp;temperature;humidity
14099;DHT22;7126;48.458;7.930;2023-02-15T00:00:26;2.30;99.90
14099;DHT22;7126;48.458;7.930;2023-02-15T00:02:52;2.20;99.90
14099;DHT22;7126;48.458;7.930;2023-02-15T00:05:17;2.20;99.90
14099;DHT22;7126;48.458;7.930;2023-02-15T00:07:43;2.10;99.90
14099;DHT22;7126;48.458;7.930;2023-02-15T00:10:09;2.10;99.90
14099;DHT22;7126;48.458;7.930;2023-02-15T00:12:36;2.00;99.90
14099;DHT22;7126;48.458;7.930;2023-02-15T00:15:01;2.00;99.90
14099;DHT22;7126;48.458;7.930;2023-02-15T00:17:28;2.10;99.90
14099;DHT22;7126;48.458;7.930;2023-02-15T00:19:54;2.20;99.90
14099;DHT22;7126;48.458;7.930;2023-02-15T00:22:19;2.30;99.90
14099;DHT22;7126;48.458;7.930;2023-02-15T00:24:45;2.30;99.90
14099;DHT22;7126;48.458;7.930;2023-02-15T00:27:11;2.40;99.90
14099;DHT22;7126;48.458;7.930;2023-02-15T00:29:36;2.30;99.90
14099;DHT22;7126;48.458;7.930;2023-02-15T00:32:02;2.20;99.90
14099;DHT22;7126;48.458;7.930;2023-02-15T00:34:27;2.20;99.90
14099;DHT22;7126;48.458;7.930;2023-02-15T00:36:53;2.20;99.90
14099;DHT22;7126;48.458;7.930;2023-02-15T00:39:19;2.20;99.90
14099;DHT22;7126;48.458;7.930;2023-02-15T00:41:46;2.30;99.90
14099;DHT22;7126;48.458;7.930;2023-02-15T00:44:12;2.40;99.90
14099;DHT22;7126;48.458;7.930;2023-02-15T00:46:38;2.10;99.90
14099;DHT22;7126;48.458;7.930;2023-02-15T00:49:04;2.00;99.90
14099;DHT22;7126;48.458;7.930;2023-02-15T00:51:30;2.10;99.90
14099;DHT22;7126;48.458;7.930;2023-02-15T00:53:55;2.10;99.90
14099;DHT22;7126;48.458;7.930;2023-02-15T00:56:21;2.20;99.90
14099;DHT22;7126;48.458;7.930;2023-02-15T00:58:47;2.20;99.90
14099;DHT22;7126;48.458;7.930;2023-02-15T01:01:18;2.30;99.90
14099;DHT22;7126;48.458;7.930;2023-02-15T01:03:44;2.40;99.90
14099;DHT22;7126;48.458;7.930;2023-02-15T01:06:12;2.50;99.90
14099;DHT22;7126;48.458;7.930;2023-02-15T01:08:38;2.40;99.90
14099;DHT22;7126;48.458;7.930;2023-02-15T01:11:10;2.20;99.90
14099;DHT22;7126;48.458;7.930;2023-02-15T01:13:36;2.20;99.90
14099;DHT22;7126;48.458;7.930;2023-02-15T01:16:02;2.20;99.90
14099;DHT22;7126;48.458;7.930;2023-02-15T01:18:28;2.20;99.90
14099;DHT22;7126;48.458;7.930;2023-02-15T01:20:54;2.20;99.90
14099;DHT22;7126;48.458;7.930;2023-02-15T01:23:20;2.00;99.90
14099;DHT22;7126;48.458;7.930;2023-02-15T01:25:45;1.90;99.90
14099;DHT22;7126;48.458;7.930;2023-02-15T01:28:11;1.90;99.90
14099;DHT22;7126;48.458;7.930;2023-02-15T01:30:37;1.80;99.90
14099;DHT22;7126;48.458;7.930;2023-02-15T01:33:02;1.80;99.90
14099;DHT22;7126;48.458;7.930;2023-02-15T01:35:28;1.80;99.90
14099;DHT22;7126;48.458;7.930;2023-02-15T01:37:55;1.70;99.90
14099;DHT22;7126;48.458;7.930;2023-02-15T01:40:21;1.70;99.90
14099;DHT22;7126;48.458;7.930;2023-02-15T01:42:51;1.80;99.90
14099;DHT22;7126;48.458;7.930;2023-02-15T01:45:30;1.80;99.90
14099;DHT22;7126;48.458;7.930;2023-02-15T01:50:37;2.00;99.90
14099;DHT22;7126;48.458;7.930;2023-02-15T01:53:13;2.10;99.90
14099;DHT22;7126;48.458;7.930;2023-02-15T01:55:54;2.10;99.90
14099;DHT22;7126;48.458;7.930;2023-02-15T01:58:22;2.10;99.90
14099;DHT22;7126;48.458;7.930;2023-02-15T02:00:50;2.10;99.90
14099;DHT22;7126;48.458;7.930;2023-02-15T02:03:16;2.20;99.90
14099;DHT22;7126;48.458;7.930;2023-02-15T02:05:42;2.20;99.90
14099;DHT22;7126;48.458;7.930;2023-02-15T02:08:08;2.20;99.90
14099;DHT22;7126;48.458;7.930;2023-02-15T02:10:35;2.20;99.90
14099;DHT22;7126;48.458;7.930;2023-02-15T02:13:04;2.30;99.90
14099;DHT22;7126;48.458;7.930;2023-02-15T02:15:41;2.40;99.90
14099;DHT22;7126;48.458;7.930;2023-02-15T02:23:51;2.20;99.90
14099;DHT22;7126;48.458;7.930;2023-02-15T02:34:33;2.20;99.90
14099;DHT22;7126;48.458;7.930;2023-02-15T02:42:39;2.20;99.90
14099;DHT22;7126;48.458;7.930;2023-02-15T02:45:16;2.20;99.90
14099;DHT22;7126;48.458;7.930;2023-02-15T02:48:13;2.20;99.90
14099;DHT22;7126;48.458;7.930;2023-02-15T02:50:41;2.10;99.90
14099;DHT22;7126;48.458;7.930;2023-02-15T02:53:07;2.10;99.90
14099;DHT22;7126;48.458;7.930;2023-02-15T02:55:46;2.10;99.90
14099;DHT22;7126;48.458;7.930;2023-02-15T02:58:34;2.00;99.90
14099;DHT22;7126;48.458;7.930;2023-02-15T03:01:05;1.90;99.90
14099;DHT22;7126;48.458;7.930;2023-02-15T03:03:39;1.90;99.90
14099;DHT22;7126;48.458;7.930;2023-02-15T03:06:10;2.00;99.90
14099;DHT22;7126;48.458;7.930;2023-02-15T03:08:42;2.10;99.90
14099;DHT22;7126;48.458;7.930;2023-02-15T03:11:11;2.20;99.90
14099;DHT22;7126;48.458;7.930;2023-02-15T03:13:37;2.30;99.90
14099;DHT22;7126;48.458;7.930;2023-02-15T03:16:04;2.20;99.90
14099;DHT22;7126;48.458;7.930;2023-02-15T03:18:53;2.20;99.90
14099;DHT22;7126;48.458;7.930;2023-02-15T03:21:33;2.10;99.90
14099;DHT22;7126;48.458;7.930;2023-02-15T03:24:06;2.20;99.90
14099;DHT22;7126;48.458;7.930;2023-02-15T03:26:33;2.20;99.90
14099;DHT22;7126;48.458;7.930;2023-02-15T03:29:01;2.30;99.90
14099;DHT22;7126;48.458;7.930;2023-02-15T03:31:31;2.30;99.90
14099;DHT22;7126;48.458;7.930;2023-02-15T03:34:03;2.30;99.90
14099;DHT22;7126;48.458;7.930;2023-02-15T03:39:10;2.30;99.90
14099;DHT22;7126;48.458;7.930;2023-02-15T03:41:54;2.10;99.90
14099;DHT22;7126;48.458;7.930;2023-02-15T03:44:28;2.20;99.90
14099;DHT22;7126;48.458;7.930;2023-02-15T03:47:08;2.30;99.90
14099;DHT22;7126;48.458;7.930;2023-02-15T03:49:43;2.30;99.90
14099;DHT22;7126;48.458;7.930;2023-02-15T03:52:11;2.20;99.90
14099;DHT22;7126;48.458;7.930;2023-02-15T03:54:39;2.30;99.90
14099;DHT22;7126;48.458;7.930;2023-02-15T04:00:05;2.30;99.90
14099;DHT22;7126;48.458;7.930;2023-02-15T04:03:11;2.10;99.90
14099;DHT22;7126;48.458;7.930;2023-02-15T04:05:38;2.10;99.90
14099;DHT22;7126;48.458;7.930;2023-02-15T04:08:04;2.20;99.90
14099;DHT22;7126;48.458;7.930;2023-02-15T04:10:29;2.20;99.90
14099;DHT22;7126;48.458;7.930;2023-02-15T04:13:13;2.00;99.90
14099;DHT22;7126;48.458;7.930;2023-02-15T04:15:39;1.90;99.90
14099;DHT22;7126;48.458;7.930;2023-02-15T04:18:23;1.70;99.90
14099;DHT22;7126;48.458;7.930;2023-02-15T04:21:08;1.60;99.90
14099;DHT22;7126;48.458;7.930;2023-02-15T04:23:52;1.70;99.90
14099;DHT22;7126;48.458;7.930;2023-02-15T04:26:36;1.80;99.90
14099;DHT22;7126;48.458;7.930;2023-02-15T04:29:01;1.80;99.90
14099;DHT22;7126;48.458;7.930;2023-02-15T04:31:27;1.90;99.90
14099;DHT22;7126;48.458;7.930;2023-02-15T04:33:52;2.00;99.90
14099;DHT22;7126;48.458;7.930;2023-02-15T04:36:18;2.00;99.90
14099;DHT22;7126;48.458;7.930;2023-02-15T04:38:43;2.10;99.90
14099;DHT22;7126;48.458;7.930;2023-02-15T04:41:09;2.00;99.90
14099;DHT22;7126;48.458;7.930;2023-02-15T04:43:36;1.90;99.90
14099;DHT22;7126;48.458;7.930;2023-02-15T04:46:02;1.90;99.90
14099;DHT22;7126;48.458;7.930;2023-02-15T04:48:27;1.80;99.90
14099;DHT22;7126;48.458;7.930;2023-02-15T04:50:53;1.80;99.90
14099;DHT22;7126;48.458;7.930;2023-02-15T04:53:19;1.70;99.90
14099;DHT22;7126;48.458;7.930;2023-02-15T04:55:44;1.50;99.90
14099;DHT22;7126;48.458;7.930;2023-02-15T04:58:10;1.50;99.90
14099;DHT22;7126;48.458;7.930;2023-02-15T05:00:35;1.50;99.90
14099;DHT22;7126;48.458;7.930;2023-02-15T05:03:01;1.60;99.90
14099;DHT22;7126;48.458;7.930;2023-02-15T05:05:27;1.70;99.90
14099;DHT22;7126;48.458;7.930;2023-02-15T05:07:52;1.80;99.90
14099;DHT22;7126;48.458;7.930;2023-02-15T05:10:18;1.90;99.90
14099;DHT22;7126;48.458;7.930;2023-02-15T05:12:44;1.90;99.90
14099;DHT22;7126;48.458;7.930;2023-02-15T05:15:09;1.80;99.90
14099;DHT22;7126;48.458;7.930;2023-02-15T05:17:35;1.70;99.90
14099;DHT22;7126;48.458;7.930;2023-02-15T05:20:00;1.40;99.90
14099;DHT22;7126;48.458;7.930;2023-02-15T05:22:26;1.30;99.90
14099;DHT22;7126;48.458;7.930;2023-02-15T05:24:51;1.30;99.90
14099;DHT22;7126;48.458;7.930;2023-02-15T05:27:35;1.20;99.90
14099;DHT22;7126;48.458;7.930;2023-02-15T05:30:20;1.20;99.90
14099;DHT22;7126;48.458;7.930;2023-02-15T05:32:46;1.20;99.90
14099;DHT22;7126;48.458;7.930;2023-02-15T05:35:14;1.30;99.90
14099;DHT22;7126;48.458;7.930;2023-02-15T05:37:40;1.30;99.90
14099;DHT22;7126;48.458;7.930;2023-02-15T05:40:06;1.20;99.90
14099;DHT22;7126;48.458;7.930;2023-02-15T05:42:32;1.30;99.90
14099;DHT22;7126;48.458;7.930;2023-02-15T05:44:57;1.20;99.90
14099;DHT22;7126;48.458;7.930;2023-02-15T05:47:23;1.10;99.90
14099;DHT22;7126;48.458;7.930;2023-02-15T05:49:49;1.20;99.90
14099;DHT22;7126;48.458;7.930;2023-02-15T05:52:14;1.50;99.90
14099;DHT22;7126;48.458;7.930;2023-02-15T05:54:40;1.50;99.90
14099;DHT22;7126;48.458;7.930;2023-02-15T05:57:05;1.40;99.90
14099;DHT22;7126;48.458;7.930;2023-02-15T05:59:31;1.30;99.90
14099;DHT22;7126;48.458;7.930;2023-02-15T06:01:56;1.30;99.90
14099;DHT22;7126;48.458;7.930;2023-02-15T06:04:22;1.20;99.90
14099;DHT22;7126;48.458;7.930;2023-02-15T06:06:47;1.10;99.90
14099;DHT22;7126;48.458;7.930;2023-02-15T06:09:13;1.00;99.90
14099;DHT22;7126;48.458;7.930;2023-02-15T06:11:39;1.00;99.90
14099;DHT22;7126;48.458;7.930;2023-02-15T06:14:05;1.20;99.90
14099;DHT22;7126;48.458;7.930;2023-02-15T06:16:30;1.30;99.90
14099;DHT22;7126;48.458;7.930;2023-02-15T06:18:56;1.20;99.90
14099;DHT22;7126;48.458;7.930;2023-02-15T06:21:22;1.30;99.90
14099;DHT22;7126;48.458;7.930;2023-02-15T06:23:47;1.30;99.90
14099;DHT22;7126;48.458;7.930;2023-02-15T06:26:13;1.40;99.90
14099;DHT22;7126;48.458;7.930;2023-02-15T06:28:38;1.40;99.90
14099;DHT22;7126;48.458;7.930;2023-02-15T06:31:06;1.40;99.90
14099;DHT22;7126;48.458;7.930;2023-02-15T06:33:32;1.40;99.90
14099;DHT22;7126;48.458;7.930;2023-02-15T06:35:59;1.40;99.90
14099;DHT22;7126;48.458;7.930;2023-02-15T06:38:25;1.40;99.90
14099;DHT22;7126;48.458;7.930;2023-02-15T06:40:50;1.50;99.90
14099;DHT22;7126;48.458;7.930;2023-02-15T06:43:16;1.50;99.90
14099;DHT22;7126;48.458;7.930;2023-02-15T06:45:42;1.60;99.90
14099;DHT22;7126;48.458;7.930;2023-02-15T06:48:07;1.60;99.90
14099;DHT22;7126;48.458;7.930;2023-02-15T06:50:34;1.50;99.90
14099;DHT22;7126;48.458;7.930;2023-02-15T06:52:59;1.60;99.90
14099;DHT22;7126;48.458;7.930;2023-02-15T06:55:25;1.60;99.90
14099;DHT22;7126;48.458;7.930;2023-02-15T06:57:51;1.70;99.90
14099;DHT22;7126;48.458;7.930;2023-02-15T07:00:17;1.70;99.90
14099;DHT22;7126;48.458;7.930;2023-02-15T07:02:43;1.60;99.90
14099;DHT22;7126;48.458;7.930;2023-02-15T07:05:09;1.60;99.90
14099;DHT22;7126;48.458;7.930;2023-02-15T07:07:35;1.70;99.90
14099;DHT22;7126;48.458;7.930;2023-02-15T07:10:01;1.60;99.90
14099;DHT22;7126;48.458;7.930;2023-02-15T07:12:26;1.40;99.90
14099;DHT22;7126;48.458;7.930;2023-02-15T07:15:08;1.30;99.90
14099;DHT22;7126;48.458;7.930;2023-02-15T07:17:35;1.30;99.90
14099;DHT22;7126;48.458;7.930;2023-02-15T07:20:05;1.40;99.90
14099;DHT22;7126;48.458;7.930;2023-02-15T07:22:31;1.40;99.90
14099;DHT22;7126;48.458;7.930;2023-02-15T07:24:56;1.50;99.90
14099;DHT22;7126;48.458;7.930;2023-02-15T07:27:22;1.50;99.90
14099;DHT22;7126;48.458;7.930;2023-02-15T07:29:47;1.40;99.90
14099;DHT22;7126;48.458;7.930;2023-02-15T07:32:13;1.50;99.90
14099;DHT22;7126;48.458;7.930;2023-02-15T07:34:40;1.40;99.90
14099;DHT22;7126;48.458;7.930;2023-02-15T07:37:06;1.50;99.90
14099;DHT22;7126;48.458;7.930;2023-02-15T07:39:31;1.50;99.90
14099;DHT22;7126;48.458;7.930;2023-02-15T07:41:57;1.50;99.90
14099;DHT22;7126;48.458;7.930;2023-02-15T07:44:22;1.50;99.90
14099;DHT22;7126;48.458;7.930;2023-02-15T07:46:48;1.60;99.90
14099;DHT22;7126;48.458;7.930;2023-02-15T07:49:13;1.50;99.90
14099;DHT22;7126;48.458;7.930;2023-02-15T07:51:39;1.50;99.90
14099;DHT22;7126;48.458;7.930;2023-02-15T07:54:06;1.50;99.90
14099;DHT22;7126;48.458;7.930;2023-02-15T07:56:32;1.60;99.90
14099;DHT22;7126;48.458;7.930;2023-02-15T07:58:58;1.70;99.90
14099;DHT22;7126;48.458;7.930;2023-02-15T08:03:52;1.70;99.90
14099;DHT22;7126;48.458;7.930;2023-02-15T08:06:18;1.80;99.90
14099;DHT22;7126;48.458;7.930;2023-02-15T08:08:44;1.80;99.90
14099;DHT22;7126;48.458;7.930;2023-02-15T08:14:04;1.80;99.90
14099;DHT22;7126;48.458;7.930;2023-02-15T08:16:38;1.80;99.90
14099;DHT22;7126;48.458;7.930;2023-02-15T08:19:32;1.80;99.90
14099;DHT22;7126;48.458;7.930;2023-02-15T08:21:59;1.70;99.90
14099;DHT22;7126;48.458;7.930;2023-02-15T08:24:27;1.80;99.90
14099;DHT22;7126;48.458;7.930;2023-02-15T08:26:53;1.90;99.90
14099;DHT22;7126;48.458;7.930;2023-02-15T08:29:22;1.90;99.90
14099;DHT22;7126;48.458;7.930;2023-02-15T08:31:49;1.90;99.90
14099;DHT22;7126;48.458;7.930;2023-02-15T08:34:17;1.90;99.90
14099;DHT22;7126;48.458;7.930;2023-02-15T08:36:44;1.80;99.90
14099;DHT22;7126;48.458;7.930;2023-02-15T08:39:13;1.80;99.90
14099;DHT22;7126;48.458;7.930;2023-02-15T08:41:42;1.80;99.90
14099;DHT22;7126;48.458;7.930;2023-02-15T08:44:09;1.80;99.90
14099;DHT22;7126;48.458;7.930;2023-02-15T08:46:41;1.80;99.90
14099;DHT22;7126;48.458;7.930;2023-02-15T08:49:08;1.90;99.90
14099;DHT22;7126;48.458;7.930;2023-02-15T08:51:35;1.90;99.90
14099;DHT22;7126;48.458;7.930;2023-02-15T08:54:03;2.00;99.90
14099;DHT22;7126;48.458;7.930;2023-02-15T08:56:33;2.00;99.90
14099;DHT22;7126;48.458;7.930;2023-02-15T08:58:59;2.00;99.90
14099;DHT22;7126;48.458;7.930;2023-02-15T09:01:26;2.10;99.90
14099;DHT22;7126;48.458;7.930;2023-02-15T09:03:56;2.10;99.90
14099;DHT22;7126;48.458;7.930;2023-02-15T09:06:22;2.00;99.90
14099;DHT22;7126;48.458;7.930;2023-02-15T09:08:49;1.90;99.90
14099;DHT22;7126;48.458;7.930;2023-02-15T09:13:51;2.10;99.90
14099;DHT22;7126;48.458;7.930;2023-02-15T09:16:17;2.10;99.90
14099;DHT22;7126;48.458;7.930;2023-02-15T09:18:43;2.20;99.90
14099;DHT22;7126;48.458;7.930;2023-02-15T09:21:17;2.20;99.90
14099;DHT22;7126;48.458;7.930;2023-02-15T09:23:44;2.30;99.90
14099;DHT22;7126;48.458;7.930;2023-02-15T09:26:12;2.40;99.90
14099;DHT22;7126;48.458;7.930;2023-02-15T09:28:39;2.50;99.90
14099;DHT22;7126;48.458;7.930;2023-02-15T09:31:16;2.50;99.90
14099;DHT22;7126;48.458;7.930;2023-02-15T09:33:43;2.40;99.90
14099;DHT22;7126;48.458;7.930;2023-02-15T09:36:23;2.50;99.90
14099;DHT22;7126;48.458;7.930;2023-02-15T09:39:04;2.50;99.90
14099;DHT22;7126;48.458;7.930;2023-02-15T09:44:50;2.70;99.90
14099;DHT22;7126;48.458;7.930;2023-02-15T09:53:14;2.50;99.90
14099;DHT22;7126;48.458;7.930;2023-02-15T10:04:45;2.50;99.90
14099;DHT22;7126;48.458;7.930;2023-02-15T10:08:19;2.50;99.90
14099;DHT22;7126;48.458;7.930;2023-02-15T10:13:38;2.50;99.90
14099;DHT22;7126;48.458;7.930;2023-02-15T10:16:30;2.40;99.90
14099;DHT22;7126;48.458;7.930;2023-02-15T10:19:14;2.50;99.90
14099;DHT22;7126;48.458;7.930;2023-02-15T10:21:58;2.60;99.90
14099;DHT22;7126;48.458;7.930;2023-02-15T10:24:30;2.50;99.90
14099;DHT22;7126;48.458;7.930;2023-02-15T10:27:10;2.50;99.90
14099;DHT22;7126;48.458;7.930;2023-02-15T10:29:38;2.70;99.90
14099;DHT22;7126;48.458;7.930;2023-02-15T10:32:23;2.70;99.90
14099;DHT22;7126;48.458;7.930;2023-02-15T10:35:13;2.90;99.90
14099;DHT22;7126;48.458;7.930;2023-02-15T10:38:09;3.00;99.90
14099;DHT22;7126;48.458;7.930;2023-02-15T10:40:40;3.00;99.90
14099;DHT22;7126;48.458;7.930;2023-02-15T10:45:56;3.10;99.90
14099;DHT22;7126;48.458;7.930;2023-02-15T10:51:31;3.20;99.90
14099;DHT22;7126;48.458;7.930;2023-02-15T10:57:04;3.00;99.90
14099;DHT22;7126;48.458;7.930;2023-02-15T11:02:47;2.80;99.90
14099;DHT22;7126;48.458;7.930;2023-02-15T11:05:35;2.80;99.90
14099;DHT22;7126;48.458;7.930;2023-02-15T11:08:08;3.00;99.90
14099;DHT22;7126;48.458;7.930;2023-02-15T11:10:51;3.00;99.90
14099;DHT22;7126;48.458;7.930;2023-02-15T11:13:21;3.00;99.90
14099;DHT22;7126;48.458;7.930;2023-02-15T11:15:57;3.10;99.90
14099;DHT22;7126;48.458;7.930;2023-02-15T11:18:33;3.20;99.90
14099;DHT22;7126;48.458;7.930;2023-02-15T11:23:44;3.20;99.90
14099;DHT22;7126;48.458;7.930;2023-02-15T11:26:38;3.30;99.90
14099;DHT22;7126;48.458;7.930;2023-02-15T11:29:21;3.40;99.90
14099;DHT22;7126;48.458;7.930;2023-02-15T11:31:55;3.40;99.90
14099;DHT22;7126;48.458;7.930;2023-02-15T11:34:34;3.30;99.90
14099;DHT22;7126;48.458;7.930;2023-02-15T11:37:06;3.40;99.90
14099;DHT22;7126;48.458;7.930;2023-02-15T11:39:34;3.40;99.90
14099;DHT22;7126;48.458;7.930;2023-02-15T11:42:06;3.50;99.90
14099;DHT22;7126;48.458;7.930;2023-02-15T11:44:35;3.50;99.90
14099;DHT22;7126;48.458;7.930;2023-02-15T11:47:02;3.40;99.90
14099;DHT22;7126;48.458;7.930;2023-02-15T11:49:32;3.50;99.90
14099;DHT22;7126;48.458;7.930;2023-02-15T11:52:02;3.60;99.90
14099;DHT22;7126;48.458;7.930;2023-02-15T11:54:31;3.70;99.90
14099;DHT22;7126;48.458;7.930;2023-02-15T11:57:11;3.70;99.90
14099;DHT22;7126;48.458;7.930;2023-02-15T11:59:37;3.70;99.90
14099;DHT22;7126;48.458;7.930;2023-02-15T12:02:18;3.70;99.90
14099;DHT22;7126;48.458;7.930;2023-02-15T12:04:51;3.60;99.90
14099;DHT22;7126;48.458;7.930;2023-02-15T12:07:23;3.50;99.90
14099;DHT22;7126;48.458;7.930;2023-02-15T12:09:59;3.70;99.90
14099;DHT22;7126;48.458;7.930;2023-02-15T12:14:55;3.70;99.90
14099;DHT22;7126;48.458;7.930;2023-02-15T12:17:36;3.70;99.90
14099;DHT22;7126;48.458;7.930;2023-02-15T12:20:29;3.80;99.90
14099;DHT22;7126;48.458;7.930;2023-02-15T12:23:04;3.90;99.90
14099;DHT22;7126;48.458;7.930;2023-02-15T12:25:43;4.10;99.90
14099;DHT22;7126;48.458;7.930;2023-02-15T12:30:46;4.20;99.90
14099;DHT22;7126;48.458;7.930;2023-02-15T12:33:24;4.20;99.90
14099;DHT22;7126;48.458;7.930;2023-02-15T12:35:57;4.30;99.90
14099;DHT22;7126;48.458;7.930;2023-02-15T12:38:26;4.20;99.90
14099;DHT22;7126;48.458;7.930;2023-02-15T12:41:04;4.20;99.90
14099;DHT22;7126;48.458;7.930;2023-02-15T12:43:33;4.20;99.90
14099;DHT22;7126;48.458;7.930;2023-02-15T12:46:22;4.20;99.90
14099;DHT22;7126;48.458;7.930;2023-02-15T12:49:05;4.30;99.90
14099;DHT22;7126;48.458;7.930;2023-02-15T12:51:43;4.40;99.90
14099;DHT22;7126;48.458;7.930;2023-02-15T12:56:50;4.50;99.90
14099;DHT22;7126;48.458;7.930;2023-02-15T12:59:17;4.60;99.90
14099;DHT22;7126;48.458;7.930;2023-02-15T13:01:46;4.70;99.90
14099;DHT22;7126;48.458;7.930;2023-02-15T13:06:49;4.80;99.90
14099;DHT22;7126;48.458;7.930;2023-02-15T13:11:46;4.80;99.90
14099;DHT22;7126;48.458;7.930;2023-02-15T13:14:28;4.70;99.90
14099;DHT22;7126;48.458;7.930;2023-02-15T13:16:58;4.80;99.90
14099;DHT22;7126;48.458;7.930;2023-02-15T13:22:03;5.10;99.90
14099;DHT22;7126;48.458;7.930;2023-02-15T13:24:35;5.20;99.90
14099;DHT22;7126;48.458;7.930;2023-02-15T13:27:03;5.30;99.90
14099;DHT22;7126;48.458;7.930;2023-02-15T13:29:31;5.30;99.90
14099;DHT22;7126;48.458;7.930;2023-02-15T13:32:22;5.30;99.90
14099;DHT22;7126;48.458;7.930;2023-02-15T13:34:49;5.30;99.90
14099;DHT22;7126;48.458;7.930;2023-02-15T13:40:12;5.40;99.90
14099;DHT22;7126;48.458;7.930;2023-02-15T13:45:45;5.50;99.90
14099;DHT22;7126;48.458;7.930;2023-02-15T13:51:02;5.50;99.90
14099;DHT22;7126;48.458;7.930;2023-02-15T13:54:03;5.50;99.90
14099;DHT22;7126;48.458;7.930;2023-02-15T13:59:46;5.60;99.90
14099;DHT22;7126;48.458;7.930;2023-02-15T14:08:34;5.60;99.90
14099;DHT22;7126;48.458;7.930;2023-02-15T14:11:21;5.70;99.90
14099;DHT22;7126;48.458;7.930;2023-02-15T14:14:47;5.70;99.90
14099;DHT22;7126;48.458;7.930;2023-02-15T14:17:14;5.70;99.90
14099;DHT22;7126;48.458;7.930;2023-02-15T14:19:46;5.80;99.90
14099;DHT22;7126;48.458;7.930;2023-02-15T14:27:56;5.90;99.90
14099;DHT22;7126;48.458;7.930;2023-02-15T14:30:30;5.80;99.90
14099;DHT22;7126;48.458;7.930;2023-02-15T14:33:08;5.80;99.90
14099;DHT22;7126;48.458;7.930;2023-02-15T14:35:34;5.80;99.90
14099;DHT22;7126;48.458;7.930;2023-02-15T14:38:23;5.80;99.90
14099;DHT22;7126;48.458;7.930;2023-02-15T14:40:52;5.80;99.90
14099;DHT22;7126;48.458;7.930;2023-02-15T14:44:01;5.70;99.90
14099;DHT22;7126;48.458;7.930;2023-02-15T14:46:56;5.60;99.90
14099;DHT22;7126;48.458;7.930;2023-02-15T14:49:35;5.50;99.90
14099;DHT22;7126;48.458;7.930;2023-02-15T14:52:14;5.50;99.90
14099;DHT22;7126;48.458;7.930;2023-02-15T15:02:15;5.50;99.90
14099;DHT22;7126;48.458;7.930;2023-02-15T15:04:59;5.50;99.90
14099;DHT22;7126;48.458;7.930;2023-02-15T15:07:28;5.50;99.90
14099;DHT22;7126;48.458;7.930;2023-02-15T15:10:04;5.50;99.90
14099;DHT22;7126;48.458;7.930;2023-02-15T15:12:45;5.50;99.90
14099;DHT22;7126;48.458;7.930;2023-02-15T15:15:34;5.50;99.90
14099;DHT22;7126;48.458;7.930;2023-02-15T15:28:55;5.40;99.90
14099;DHT22;7126;48.458;7.930;2023-02-15T15:34:38;5.40;99.90
14099;DHT22;7126;48.458;7.930;2023-02-15T15:37:46;5.30;99.90
14099;DHT22;7126;48.458;7.930;2023-02-15T15:48:38;5.10;99.90
14099;DHT22;7126;48.458;7.930;2023-02-15T15:51:27;5.10;99.90
14099;DHT22;7126;48.458;7.930;2023-02-15T15:53:53;5.10;99.90
14099;DHT22;7126;48.458;7.930;2023-02-15T15:56:23;5.00;99.90
14099;DHT22;7126;48.458;7.930;2023-02-15T15:59:02;5.00;99.90
14099;DHT22;7126;48.458;7.930;2023-02-15T16:01:35;4.90;99.90
14099;DHT22;7126;48.458;7.930;2023-02-15T16:04:02;4.80;99.90
14099;DHT22;7126;48.458;7.930;2023-02-15T16:06:36;4.80;99.90
14099;DHT22;7126;48.458;7.930;2023-02-15T16:09:11;4.70;99.90
14099;DHT22;7126;48.458;7.930;2023-02-15T16:11:37;4.70;99.90
14099;DHT22;7126;48.458;7.930;2023-02-15T16:14:15;4.60;99.90
14099;DHT22;7126;48.458;7.930;2023-02-15T16:16:47;4.60;99.90
14099;DHT22;7126;48.458;7.930;2023-02-15T16:19:26;4.50;99.90
14099;DHT22;7126;48.458;7.930;2023-02-15T16:21:53;4.40;99.90
14099;DHT22;7126;48.458;7.930;2023-02-15T16:27:42;4.00;99.90
14099;DHT22;7126;48.458;7.930;2023-02-15T16:30:27;4.00;99.90
14099;DHT22;7126;48.458;7.930;2023-02-15T16:33:14;3.90;99.90
14099;DHT22;7126;48.458;7.930;2023-02-15T16:35:58;3.90;99.90
14099;DHT22;7126;48.458;7.930;2023-02-15T16:41:12;3.90;99.90
14099;DHT22;7126;48.458;7.930;2023-02-15T16:43:40;3.90;99.90
14099;DHT22;7126;48.458;7.930;2023-02-15T16:46:10;3.90;99.90
14099;DHT22;7126;48.458;7.930;2023-02-15T16:48:41;3.80;99.90
14099;DHT22;7126;48.458;7.930;2023-02-15T16:51:08;3.70;99.90
14099;DHT22;7126;48.458;7.930;2023-02-15T16:53:34;3.60;99.90
14099;DHT22;7126;48.458;7.930;2023-02-15T16:56:03;3.50;99.90
14099;DHT22;7126;48.458;7.930;2023-02-15T16:58:44;3.40;99.90
14099;DHT22;7126;48.458;7.930;2023-02-15T17:01:13;3.40;99.90
14099;DHT22;7126;48.458;7.930;2023-02-15T17:03:41;3.30;99.90
14099;DHT22;7126;48.458;7.930;2023-02-15T17:06:22;3.30;99.90
14099;DHT22;7126;48.458;7.930;2023-02-15T17:08:48;3.30;99.90
14099;DHT22;7126;48.458;7.930;2023-02-15T17:11:22;3.30;99.90
14099;DHT22;7126;48.458;7.930;2023-02-15T17:16:35;3.20;99.90
14099;DHT22;7126;48.458;7.930;2023-02-15T17:19:07;3.10;99.90
14099;DHT22;7126;48.458;7.930;2023-02-15T17:21:40;3.20;99.90
14099;DHT22;7126;48.458;7.930;2023-02-15T17:24:13;3.20;99.90
14099;DHT22;7126;48.458;7.930;2023-02-15T17:26:40;3.20;99.90
14099;DHT22;7126;48.458;7.930;2023-02-15T17:29:37;3.10;99.90
14099;DHT22;7126;48.458;7.930;2023-02-15T17:32:05;3.10;99.90
14099;DHT22;7126;48.458;7.930;2023-02-15T17:34:47;3.00;99.90
14099;DHT22;7126;48.458;7.930;2023-02-15T17:40:00;2.90;99.90
14099;DHT22;7126;48.458;7.930;2023-02-15T17:42:26;2.90;99.90
14099;DHT22;7126;48.458;7.930;2023-02-15T17:44:52;2.80;99.90
14099;DHT22;7126;48.458;7.930;2023-02-15T17:47:20;2.80;99.90
14099;DHT22;7126;48.458;7.930;2023-02-15T17:49:47;2.70;99.90
14099;DHT22;7126;48.458;7.930;2023-02-15T17:52:15;2.70;99.90
14099;DHT22;7126;48.458;7.930;2023-02-15T17:54:41;2.60;99.90
14099;DHT22;7126;48.458;7.930;2023-02-15T17:57:26;2.70;99.90
14099;DHT22;7126;48.458;7.930;2023-02-15T17:59:53;2.70;99.90
14099;DHT22;7126;48.458;7.930;2023-02-15T18:02:37;2.60;99.90
14099;DHT22;7126;48.458;7.930;2023-02-15T18:05:21;2.70;99.90
14099;DHT22;7126;48.458;7.930;2023-02-15T18:08:17;2.70;99.90
14099;DHT22;7126;48.458;7.930;2023-02-15T18:11:02;2.70;99.90
14099;DHT22;7126;48.458;7.930;2023-02-15T18:13:46;2.50;99.90
14099;DHT22;7126;48.458;7.930;2023-02-15T18:16:14;2.50;99.90
14099;DHT22;7126;48.458;7.930;2023-02-15T18:18:40;2.40;99.90
14099;DHT22;7126;48.458;7.930;2023-02-15T18:21:06;2.40;99.90
14099;DHT22;7126;48.458;7.930;2023-02-15T18:23:32;2.50;99.90
14099;DHT22;7126;48.458;7.930;2023-02-15T18:25:58;2.50;99.90
14099;DHT22;7126;48.458;7.930;2023-02-15T18:28:24;2.60;99.90
14099;DHT22;7126;48.458;7.930;2023-02-15T18:30:49;2.70;99.90
14099;DHT22;7126;48.458;7.930;2023-02-15T18:33:34;2.70;99.90
14099;DHT22;7126;48.458;7.930;2023-02-15T18:36:02;2.60;99.90
14099;DHT22;7126;48.458;7.930;2023-02-15T18:38:29;2.50;99.90
14099;DHT22;7126;48.458;7.930;2023-02-15T18:40:54;2.40;99.90
14099;DHT22;7126;48.458;7.930;2023-02-15T18:43:20;2.40;99.90
14099;DHT22;7126;48.458;7.930;2023-02-15T18:45:45;2.40;99.90
14099;DHT22;7126;48.458;7.930;2023-02-15T18:48:11;2.60;99.90
14099;DHT22;7126;48.458;7.930;2023-02-15T18:50:37;2.70;99.90
14099;DHT22;7126;48.458;7.930;2023-02-15T18:53:05;2.70;99.90
14099;DHT22;7126;48.458;7.930;2023-02-15T18:55:31;2.70;99.90
14099;DHT22;7126;48.458;7.930;2023-02-15T18:57:58;2.70;99.90
14099;DHT22;7126;48.458;7.930;2023-02-15T19:00:27;2.70;99.90